Time;durP1;ratioP1;P1;durP2;ratioP2;P2;SDS_P1;SDS_P2;PMS_P1;PMS_P2;Temp;Humidity;BMP_temperature;BMP_pressure;BME280_temperature;BME280_humidity;BME280_pressure;Samples;Min_cycle;Max_cycle;Signal;HPM_P1;HPM_P2
2022/08/04 00:01:06;;;;;;;;;;;21.10;99.90;;;;;;5092799;28;19926;-71
2022/08/04 00:03:41;;;;;;;;;;;21.10;99.90;;;;;;5092503;28;19924;-71
2022/08/04 00:06:11;;;;;;;;;;;21.10;99.90;;;;;;5091475;28;19919;-71
2022/08/04 00:08:51;;;;;;;;;;;21.00;99.90;;;;;;5093135;28;19959;-71
2022/08/04 00:11:20;;;;;;;;;;;21.00;99.90;;;;;;5092443;28;19943;-71
2022/08/04 00:13:54;;;;;;;;;;;21.00;99.90;;;;;;5092438;28;20352;-71
2022/08/04 00:16:21;;;;;;;;;;;21.00;99.90;;;;;;5080690;28;19963;-71
2022/08/04 00:18:56;;;;;;;;;;;21.00;99.90;;;;;;5092039;28;19923;-72
2022/08/04 00:21:23;;;;;;;;;;;20.90;99.90;;;;;;5093150;28;19931;-72
2022/08/04 00:23:50;;;;;;;;;;;20.90;99.90;;;;;;5092536;28;19920;-71
2022/08/04 00:26:16;;;;;;;;;;;20.90;99.90;;;;;;5091978;28;20298;-71
2022/08/04 00:28:42;;;;;;;;;;;20.90;99.90;;;;;;5090431;28;19920;-71
2022/08/04 00:31:10;;;;;;;;;;;20.90;99.90;;;;;;5081629;28;20395;-71
2022/08/04 00:33:37;;;;;;;;;;;20.80;99.90;;;;;;5076937;28;19943;-71
2022/08/04 00:36:03;;;;;;;;;;;20.80;99.90;;;;;;5072853;28;19920;-71
2022/08/04 00:38:28;;;;;;;;;;;20.80;99.90;;;;;;5085852;28;19977;-72
2022/08/04 00:41:03;;;;;;;;;;;20.80;99.90;;;;;;5072689;28;20011;-72
2022/08/04 00:43:28;;;;;;;;;;;20.90;99.90;;;;;;5089424;28;19931;-73
2022/08/04 00:46:02;;;;;;;;;;;20.80;99.90;;;;;;5090254;28;19920;-72
2022/08/04 00:48:46;;;;;;;;;;;20.90;99.90;;;;;;5091796;28;19927;-72
2022/08/04 00:51:12;;;;;;;;;;;20.80;99.90;;;;;;5086959;28;19968;-71
2022/08/04 00:53:57;;;;;;;;;;;20.80;99.90;;;;;;5083192;28;20397;-72
2022/08/04 00:56:41;;;;;;;;;;;20.80;99.90;;;;;;5072436;28;19928;-72
2022/08/04 00:59:28;;;;;;;;;;;20.70;99.90;;;;;;5083461;28;19970;-72
2022/08/04 01:02:06;;;;;;;;;;;20.80;99.90;;;;;;5070862;28;19966;-72
2022/08/04 01:04:48;;;;;;;;;;;20.70;99.90;;;;;;5088804;28;19920;-72
2022/08/04 01:07:17;;;;;;;;;;;20.70;99.90;;;;;;5078047;28;19927;-71
2022/08/04 01:09:51;;;;;;;;;;;20.70;99.90;;;;;;5071658;28;19942;-71
2022/08/04 01:12:33;;;;;;;;;;;20.60;99.90;;;;;;5071750;28;19920;-71
2022/08/04 01:15:06;;;;;;;;;;;20.60;99.90;;;;;;5074503;28;20018;-71
2022/08/04 01:17:35;;;;;;;;;;;20.70;99.90;;;;;;5091796;28;19920;-71
2022/08/04 01:20:07;;;;;;;;;;;20.60;99.90;;;;;;5091236;28;19923;-71
2022/08/04 01:22:32;;;;;;;;;;;20.60;99.90;;;;;;5091227;28;19920;-71
2022/08/04 01:25:03;;;;;;;;;;;20.60;99.90;;;;;;5091141;28;20514;-71
2022/08/04 01:27:35;;;;;;;;;;;20.60;99.90;;;;;;5084884;28;19925;-71
2022/08/04 01:30:00;;;;;;;;;;;20.60;99.90;;;;;;5084557;28;19928;-71
2022/08/04 01:32:42;;;;;;;;;;;20.50;99.90;;;;;;5080589;28;19925;-71
2022/08/04 01:35:23;;;;;;;;;;;20.60;99.90;;;;;;5090421;28;20417;-71
2022/08/04 01:37:55;;;;;;;;;;;20.50;99.90;;;;;;5080252;28;20438;-71
2022/08/04 01:40:22;;;;;;;;;;;20.50;99.90;;;;;;5090611;28;19965;-71
2022/08/04 01:42:51;;;;;;;;;;;20.50;99.90;;;;;;5089812;28;20305;-71
2022/08/04 01:45:17;;;;;;;;;;;20.50;99.90;;;;;;5080094;28;19921;-71
2022/08/04 01:47:48;;;;;;;;;;;20.50;99.90;;;;;;5090305;28;20435;-71
2022/08/04 01:50:13;;;;;;;;;;;20.50;99.90;;;;;;5091270;28;19999;-71
2022/08/04 01:52:42;;;;;;;;;;;20.50;99.90;;;;;;5086333;28;20434;-71
2022/08/04 01:55:09;;;;;;;;;;;20.50;99.90;;;;;;5064966;28;19920;-71
2022/08/04 01:57:35;;;;;;;;;;;20.50;99.90;;;;;;5090451;28;19920;-71
2022/08/04 02:00:02;;;;;;;;;;;20.40;99.90;;;;;;5079463;28;19924;-71
2022/08/04 02:02:28;;;;;;;;;;;20.40;99.90;;;;;;5079178;28;19927;-71
2022/08/04 02:04:53;;;;;;;;;;;20.40;99.90;;;;;;5090546;28;19999;-71
2022/08/04 02:07:22;;;;;;;;;;;20.40;99.90;;;;;;5089973;28;20748;-71
2022/08/04 02:10:02;;;;;;;;;;;20.40;99.90;;;;;;5090496;28;19924;-70
2022/08/04 02:12:28;;;;;;;;;;;20.40;99.90;;;;;;5090273;28;19924;-71
2022/08/04 02:15:01;;;;;;;;;;;20.40;99.90;;;;;;5070393;28;19927;-71
2022/08/04 02:17:33;;;;;;;;;;;20.40;99.90;;;;;;5072046;28;19924;-71
2022/08/04 02:20:06;;;;;;;;;;;20.40;99.90;;;;;;5090831;28;19973;-71
2022/08/04 02:22:32;;;;;;;;;;;20.40;99.90;;;;;;5090380;28;19982;-71
2022/08/04 02:25:08;;;;;;;;;;;20.40;99.90;;;;;;5069083;28;19960;-70
2022/08/04 02:27:46;;;;;;;;;;;20.50;99.90;;;;;;5088720;28;19923;-71
2022/08/04 02:30:11;;;;;;;;;;;20.40;99.90;;;;;;5090370;28;19926;-71
2022/08/04 02:32:39;;;;;;;;;;;20.40;99.90;;;;;;5083673;28;19922;-71
2022/08/04 02:35:11;;;;;;;;;;;20.40;99.90;;;;;;5083689;28;20571;-71
2022/08/04 02:37:37;;;;;;;;;;;20.40;99.90;;;;;;5079347;28;19920;-71
2022/08/04 02:40:04;;;;;;;;;;;20.40;99.90;;;;;;5090463;28;20307;-71
2022/08/04 02:42:30;;;;;;;;;;;20.40;99.90;;;;;;5083054;28;19967;-71
2022/08/04 02:44:57;;;;;;;;;;;20.40;99.90;;;;;;5083164;28;20005;-71
2022/08/04 02:47:24;;;;;;;;;;;20.40;99.90;;;;;;5071820;28;19930;-71
2022/08/04 02:49:51;;;;;;;;;;;20.40;99.90;;;;;;5076266;28;19932;-72
2022/08/04 02:52:17;;;;;;;;;;;20.40;99.90;;;;;;5082841;28;20401;-71
2022/08/04 02:54:43;;;;;;;;;;;20.40;99.90;;;;;;5070714;28;19921;-71
2022/08/04 02:57:11;;;;;;;;;;;20.40;99.90;;;;;;5089417;28;19946;-71
2022/08/04 02:59:42;;;;;;;;;;;20.40;99.90;;;;;;5089750;28;20011;-71
2022/08/04 03:02:08;;;;;;;;;;;20.30;99.90;;;;;;5072222;28;19920;-71
2022/08/04 03:04:45;;;;;;;;;;;20.30;99.90;;;;;;5089223;28;19924;-71
2022/08/04 03:07:29;;;;;;;;;;;20.30;99.90;;;;;;5089983;28;19923;-71
2022/08/04 03:10:15;;;;;;;;;;;20.30;99.90;;;;;;5071042;28;19924;-71
2022/08/04 03:12:53;;;;;;;;;;;20.30;99.90;;;;;;5082782;28;19919;-71
2022/08/04 03:15:39;;;;;;;;;;;20.20;99.90;;;;;;5080060;28;19966;-71
2022/08/04 03:18:13;;;;;;;;;;;20.20;99.90;;;;;;5082795;28;19927;-71
2022/08/04 03:20:48;;;;;;;;;;;20.20;99.90;;;;;;5070288;28;19964;-71
2022/08/04 03:23:42;;;;;;;;;;;20.20;99.90;;;;;;5078607;28;19920;-70
2022/08/04 03:26:20;;;;;;;;;;;20.10;99.90;;;;;;5091916;28;19920;-71
2022/08/04 03:28:59;;;;;;;;;;;20.10;99.90;;;;;;5080257;28;20180;-72
2022/08/04 03:31:43;;;;;;;;;;;20.10;99.90;;;;;;5093600;28;20023;-71
2022/08/04 03:34:44;;;;;;;;;;;20.10;99.90;;;;;;5075230;28;20018;-71
2022/08/04 03:37:29;;;;;;;;;;;20.10;99.90;;;;;;4985895;28;19968;-71
2022/08/04 03:40:13;;;;;;;;;;;20.10;99.90;;;;;;5065587;28;20443;-71
2022/08/04 03:42:54;;;;;;;;;;;20.10;99.90;;;;;;5073136;28;19977;-71
2022/08/04 03:45:19;;;;;;;;;;;20.10;99.90;;;;;;5086872;28;19920;-71
2022/08/04 03:47:51;;;;;;;;;;;20.10;99.90;;;;;;5073203;28;19955;-71
2022/08/04 03:50:25;;;;;;;;;;;20.10;99.90;;;;;;5090803;28;19924;-71
2022/08/04 03:53:09;;;;;;;;;;;20.10;99.90;;;;;;5081636;28;19920;-71
2022/08/04 03:55:48;;;;;;;;;;;20.10;99.90;;;;;;5080854;28;20007;-71
2022/08/04 03:58:29;;;;;;;;;;;20.00;99.90;;;;;;5092833;28;19934;-72
2022/08/04 04:01:13;;;;;;;;;;;20.10;99.90;;;;;;5081563;28;19920;-71
2022/08/04 04:04:02;;;;;;;;;;;20.00;99.90;;;;;;5080201;28;19920;-71
2022/08/04 04:06:46;;;;;;;;;;;20.00;99.90;;;;;;5092816;28;20400;-71
2022/08/04 04:09:19;;;;;;;;;;;20.00;99.90;;;;;;5074952;28;20554;-71
2022/08/04 04:11:56;;;;;;;;;;;20.00;99.90;;;;;;5086132;28;19924;-71
2022/08/04 04:14:27;;;;;;;;;;;20.00;99.90;;;;;;5086320;28;20397;-71
2022/08/04 04:16:56;;;;;;;;;;;20.00;99.90;;;;;;5072456;28;19920;-71
2022/08/04 04:19:27;;;;;;;;;;;20.10;99.90;;;;;;5072394;28;19928;-71
2022/08/04 04:21:55;;;;;;;;;;;20.10;99.90;;;;;;5072114;28;19920;-71
2022/08/04 04:24:32;;;;;;;;;;;20.10;99.90;;;;;;5076333;28;19922;-71
2022/08/04 04:27:01;;;;;;;;;;;20.10;99.90;;;;;;5079704;28;20056;-72
2022/08/04 04:29:27;;;;;;;;;;;20.10;99.90;;;;;;5072376;28;20371;-71
2022/08/04 04:32:02;;;;;;;;;;;20.10;99.90;;;;;;5085304;28;19945;-71
2022/08/04 04:34:30;;;;;;;;;;;20.10;99.90;;;;;;5061351;28;19920;-72
2022/08/04 04:36:56;;;;;;;;;;;20.10;99.90;;;;;;5080746;28;19920;-71
2022/08/04 04:39:27;;;;;;;;;;;20.20;99.90;;;;;;5073904;28;20298;-70
2022/08/04 04:41:53;;;;;;;;;;;20.20;99.90;;;;;;5091289;28;19919;-69
2022/08/04 04:44:37;;;;;;;;;;;20.20;99.90;;;;;;5091816;28;19964;-71
2022/08/04 04:47:08;;;;;;;;;;;20.20;99.90;;;;;;5091869;28;19923;-71
2022/08/04 04:49:39;;;;;;;;;;;20.30;99.90;;;;;;5092165;28;19920;-70
2022/08/04 04:52:27;;;;;;;;;;;20.30;99.90;;;;;;5091966;28;19923;-70
2022/08/04 04:55:09;;;;;;;;;;;20.40;99.90;;;;;;5091704;28;20404;-71
2022/08/04 04:57:35;;;;;;;;;;;20.40;99.90;;;;;;5081623;28;19927;-71
2022/08/04 05:00:04;;;;;;;;;;;20.40;99.90;;;;;;5071753;28;20404;-71
2022/08/04 05:02:42;;;;;;;;;;;20.50;99.90;;;;;;5082983;28;19920;-71
2022/08/04 05:05:14;;;;;;;;;;;20.50;99.90;;;;;;5091453;28;19943;-70
2022/08/04 05:07:58;;;;;;;;;;;20.50;99.90;;;;;;5078494;28;19928;-71
2022/08/04 05:10:26;;;;;;;;;;;20.60;99.90;;;;;;5080175;28;19937;-71
2022/08/04 05:12:59;;;;;;;;;;;20.60;99.90;;;;;;5091399;28;19920;-70
2022/08/04 05:15:27;;;;;;;;;;;20.70;99.90;;;;;;5091707;28;19920;-71
2022/08/04 05:17:54;;;;;;;;;;;20.80;99.90;;;;;;5073356;28;19973;-71
2022/08/04 05:20:28;;;;;;;;;;;20.90;99.90;;;;;;5073264;28;19927;-71
2022/08/04 05:22:55;;;;;;;;;;;21.00;99.90;;;;;;5091409;28;19974;-70
2022/08/04 05:25:25;;;;;;;;;;;21.00;99.90;;;;;;5091333;28;19927;-70
2022/08/04 05:27:56;;;;;;;;;;;21.00;99.90;;;;;;5084608;28;19928;-71
2022/08/04 05:30:23;;;;;;;;;;;21.10;99.90;;;;;;5085036;28;19920;-70
2022/08/04 05:32:53;;;;;;;;;;;21.20;99.90;;;;;;5078494;28;20538;-70
2022/08/04 05:35:27;;;;;;;;;;;21.20;99.90;;;;;;5090498;28;19927;-70
2022/08/04 05:37:53;;;;;;;;;;;21.30;99.90;;;;;;5082081;28;19919;-69
2022/08/04 05:40:19;;;;;;;;;;;21.40;99.90;;;;;;5077647;28;20378;-70
2022/08/04 05:42:44;;;;;;;;;;;21.40;99.90;;;;;;5082468;28;20430;-70
2022/08/04 05:45:11;;;;;;;;;;;21.50;99.90;;;;;;5086763;28;19919;-70
2022/08/04 05:47:37;;;;;;;;;;;21.60;99.90;;;;;;5090448;28;19927;-70
2022/08/04 05:50:04;;;;;;;;;;;21.60;99.90;;;;;;5077459;28;20375;-70
2022/08/04 05:52:30;;;;;;;;;;;21.70;99.90;;;;;;5091091;28;20023;-70
2022/08/04 05:54:57;;;;;;;;;;;21.70;99.90;;;;;;5090216;28;20015;-71
2022/08/04 05:57:23;;;;;;;;;;;21.70;99.90;;;;;;5089914;28;19924;-70
2022/08/04 05:59:49;;;;;;;;;;;21.80;99.90;;;;;;5087717;28;19993;-70
2022/08/04 06:02:16;;;;;;;;;;;21.80;99.90;;;;;;5078954;28;20355;-71
2022/08/04 06:04:44;;;;;;;;;;;21.90;99.90;;;;;;5077154;28;19972;-71
2022/08/04 06:07:12;;;;;;;;;;;21.90;99.90;;;;;;5082163;28;19924;-72
2022/08/04 06:09:39;;;;;;;;;;;22.00;99.90;;;;;;5055543;28;20429;-71
2022/08/04 06:12:06;;;;;;;;;;;22.00;99.90;;;;;;5081950;28;20333;-71
2022/08/04 06:14:34;;;;;;;;;;;22.00;99.90;;;;;;5087819;28;19927;-72
2022/08/04 06:17:00;;;;;;;;;;;22.10;99.90;;;;;;5076512;28;20186;-72
2022/08/04 06:19:28;;;;;;;;;;;22.10;99.90;;;;;;5084820;28;19928;-72
2022/08/04 06:21:55;;;;;;;;;;;22.10;99.90;;;;;;5071933;28;19921;-72
2022/08/04 06:24:22;;;;;;;;;;;22.20;99.90;;;;;;5071991;28;19920;-71
2022/08/04 06:26:49;;;;;;;;;;;22.20;99.90;;;;;;5082662;28;19955;-70
2022/08/04 06:29:23;;;;;;;;;;;22.30;99.90;;;;;;5082854;28;19927;-71
2022/08/04 06:32:01;;;;;;;;;;;22.30;99.90;;;;;;5084836;28;20287;-71
2022/08/04 06:34:27;;;;;;;;;;;22.40;99.90;;;;;;5088177;28;19920;-70
2022/08/04 06:36:52;;;;;;;;;;;22.40;99.90;;;;;;5090250;28;19920;-70
2022/08/04 06:39:20;;;;;;;;;;;22.50;99.90;;;;;;5077534;28;20769;-70
2022/08/04 06:41:45;;;;;;;;;;;22.60;99.90;;;;;;5079195;28;19927;-71
2022/08/04 06:44:11;;;;;;;;;;;22.60;99.90;;;;;;5080235;28;20014;-71
2022/08/04 06:46:38;;;;;;;;;;;22.70;99.90;;;;;;5088971;28;20321;-71
2022/08/04 06:49:04;;;;;;;;;;;22.80;99.90;;;;;;5083039;28;19924;-71
2022/08/04 06:51:31;;;;;;;;;;;22.80;99.90;;;;;;5065007;28;19924;-71
2022/08/04 06:53:57;;;;;;;;;;;22.90;99.90;;;;;;5079372;28;20343;-72
2022/08/04 06:56:24;;;;;;;;;;;23.00;99.90;;;;;;5058849;28;20008;-72
2022/08/04 06:58:50;;;;;;;;;;;23.00;99.90;;;;;;5083250;28;19920;-72
2022/08/04 07:01:18;;;;;;;;;;;23.10;99.90;;;;;;5076996;28;19978;-72
2022/08/04 07:03:43;;;;;;;;;;;23.20;99.90;;;;;;5086078;28;19920;-71
2022/08/04 07:06:09;;;;;;;;;;;23.30;99.90;;;;;;5089190;28;19920;-70
2022/08/04 07:08:35;;;;;;;;;;;23.30;99.90;;;;;;5088006;28;19920;-71
2022/08/04 07:11:01;;;;;;;;;;;23.40;99.90;;;;;;5086982;28;21569;-71
2022/08/04 07:13:27;;;;;;;;;;;23.40;99.90;;;;;;5076043;28;20378;-70
2022/08/04 07:15:53;;;;;;;;;;;23.50;99.90;;;;;;5084973;28;19954;-71
2022/08/04 07:18:19;;;;;;;;;;;23.60;99.90;;;;;;5086000;28;20384;-71
2022/08/04 07:20:45;;;;;;;;;;;23.70;99.90;;;;;;5078820;28;20007;-72
2022/08/04 07:23:16;;;;;;;;;;;23.80;99.90;;;;;;5075638;28;19920;-71
2022/08/04 07:25:42;;;;;;;;;;;23.90;99.90;;;;;;5085059;28;19963;-70
2022/08/04 07:28:07;;;;;;;;;;;23.90;99.90;;;;;;5088243;28;20369;-71
2022/08/04 07:30:33;;;;;;;;;;;24.00;99.90;;;;;;5086397;28;19920;-72
2022/08/04 07:32:59;;;;;;;;;;;24.00;99.90;;;;;;5089678;28;20302;-71
2022/08/04 07:35:26;;;;;;;;;;;24.10;99.90;;;;;;5077574;28;19927;-71
2022/08/04 07:37:51;;;;;;;;;;;24.20;99.90;;;;;;5080621;28;19920;-72
2022/08/04 07:40:17;;;;;;;;;;;24.30;99.90;;;;;;5085934;28;19969;-71
2022/08/04 07:42:43;;;;;;;;;;;24.40;99.90;;;;;;5089531;28;19920;-71
2022/08/04 07:45:09;;;;;;;;;;;24.60;99.90;;;;;;5085430;28;20622;-71
2022/08/04 07:47:35;;;;;;;;;;;24.70;99.90;;;;;;5086236;28;19920;-71
2022/08/04 07:50:00;;;;;;;;;;;24.80;99.90;;;;;;5084933;28;19928;-71
2022/08/04 07:52:26;;;;;;;;;;;24.90;99.90;;;;;;5075715;28;19974;-71
2022/08/04 07:54:52;;;;;;;;;;;25.00;99.90;;;;;;5077400;28;20306;-71
2022/08/04 07:57:19;;;;;;;;;;;25.10;99.90;;;;;;5077240;28;20315;-70
2022/08/04 07:59:45;;;;;;;;;;;25.10;99.90;;;;;;5078033;28;19983;-70
2022/08/04 08:02:13;;;;;;;;;;;25.10;99.90;;;;;;5089267;28;20361;-72
2022/08/04 08:04:39;;;;;;;;;;;25.20;99.90;;;;;;5083992;28;19993;-71
2022/08/04 08:07:04;;;;;;;;;;;25.30;99.90;;;;;;5083757;28;20233;-71
2022/08/04 08:09:32;;;;;;;;;;;25.40;99.90;;;;;;5087009;28;19920;-72
2022/08/04 08:11:57;;;;;;;;;;;25.50;99.90;;;;;;5090043;28;19973;-71
2022/08/04 08:14:23;;;;;;;;;;;25.60;99.90;;;;;;5079392;28;19955;-71
2022/08/04 08:16:49;;;;;;;;;;;25.80;99.90;;;;;;5088087;28;20453;-71
2022/08/04 08:19:14;;;;;;;;;;;25.80;99.90;;;;;;5092057;28;19927;-71
2022/08/04 08:21:40;;;;;;;;;;;26.00;99.90;;;;;;5090959;28;19920;-70
2022/08/04 08:24:06;;;;;;;;;;;26.10;99.90;;;;;;5080279;28;19921;-70
2022/08/04 08:26:32;;;;;;;;;;;26.20;99.90;;;;;;5081203;28;20449;-71
2022/08/04 08:28:57;;;;;;;;;;;26.30;99.90;;;;;;5091443;28;20010;-72
2022/08/04 08:31:23;;;;;;;;;;;26.40;99.90;;;;;;5091163;28;20374;-71
2022/08/04 08:33:50;;;;;;;;;;;26.50;99.90;;;;;;5079497;28;19925;-71
2022/08/04 08:36:22;;;;;;;;;;;26.60;99.90;;;;;;5086431;28;19927;-72
2022/08/04 08:38:53;;;;;;;;;;;26.70;99.90;;;;;;5090615;28;19934;-71
2022/08/04 08:41:42;;;;;;;;;;;26.80;99.90;;;;;;5090029;28;19982;-71
2022/08/04 08:44:27;;;;;;;;;;;26.90;99.90;;;;;;5092373;28;19928;-71
2022/08/04 08:46:52;;;;;;;;;;;26.90;99.90;;;;;;5089869;28;19934;-72
2022/08/04 08:49:47;;;;;;;;;;;27.00;99.90;;;;;;5074177;28;19924;-72
2022/08/04 08:52:33;;;;;;;;;;;27.10;99.90;;;;;;5060766;28;20305;-72
2022/08/04 08:55:12;;;;;;;;;;;27.10;99.90;;;;;;5031973;28;19927;-70
2022/08/04 08:57:53;;;;;;;;;;;27.20;99.90;;;;;;5083465;28;19920;-71
2022/08/04 09:00:37;;;;;;;;;;;27.20;99.90;;;;;;5090422;28;20366;-75
2022/08/04 09:03:21;;;;;;;;;;;27.30;99.90;;;;;;5091824;28;19931;-75
2022/08/04 09:06:05;;;;;;;;;;;27.40;99.90;;;;;;5072964;28;19920;-75
2022/08/04 09:08:37;;;;;;;;;;;27.50;99.90;;;;;;5059114;28;19928;-75
2022/08/04 09:11:07;;;;;;;;;;;27.60;99.90;;;;;;5062050;28;19924;-75
2022/08/04 09:13:38;;;;;;;;;;;27.60;99.90;;;;;;5091967;28;19973;-75
2022/08/04 09:16:11;;;;;;;;;;;27.70;99.90;;;;;;5091043;28;19927;-75
2022/08/04 09:18:42;;;;;;;;;;;27.80;99.90;;;;;;5070317;28;19920;-75
2022/08/04 09:21:16;;;;;;;;;;;27.90;99.90;;;;;;5043876;28;19920;-75
2022/08/04 09:24:00;;;;;;;;;;;28.10;99.90;;;;;;5072546;28;20285;-75
2022/08/04 09:26:30;;;;;;;;;;;28.20;99.60;;;;;;5061375;28;20022;-75
2022/08/04 09:29:02;;;;;;;;;;;28.40;99.90;;;;;;5073293;28;19940;-75
2022/08/04 09:31:29;;;;;;;;;;;28.40;99.60;;;;;;5066139;28;19931;-75
2022/08/04 09:34:08;;;;;;;;;;;28.40;99.10;;;;;;5071487;28;19920;-74
2022/08/04 09:36:50;;;;;;;6.95;1.88;;;28.60;99.10;;;;;;5071879;28;19923;-75
2022/08/04 09:39:28;;;;;;;9.00;2.72;;;28.90;99.40;;;;;;5073176;28;20562;-74
2022/08/04 09:42:19;;;;;;;8.00;3.22;;;29.30;99.40;;;;;;5089076;28;20036;-75
2022/08/04 09:44:51;;;;;;;7.20;3.10;;;29.70;98.50;;;;;;5068177;28;20056;-75
2022/08/04 09:47:41;;;;;;;8.60;3.40;;;30.10;98.10;;;;;;5088251;28;20544;-75
2022/08/04 09:50:28;;;;;;;6.80;2.92;;;30.40;97.20;;;;;;5069617;28;20055;-75
2022/08/04 09:53:01;;;;;;;;;;;30.60;97.10;;;;;;5087439;28;20154;-75
2022/08/04 09:55:49;;;;;;;9.20;3.38;;;30.50;96.80;;;;;;5072554;28;19920;-75
2022/08/04 09:58:21;;;;;;;8.77;3.42;;;30.50;96.20;;;;;;5058423;28;20043;-75
2022/08/04 10:00:59;;;;;;;7.32;3.65;;;30.60;96.50;;;;;;5081623;28;20503;-75
2022/08/04 10:03:30;;;;;;;7.82;3.80;;;30.60;95.50;;;;;;5079635;28;20425;-75
2022/08/04 10:06:24;;;;;;;8.02;3.67;;;30.70;95.80;;;;;;5052720;28;20051;-75
2022/08/04 10:09:11;;;;;;;9.07;4.93;;;30.90;95.10;;;;;;5068460;28;20502;-75
2022/08/04 10:11:47;;;;;;;8.85;3.10;;;31.20;94.60;;;;;;5062424;28;20047;-75
2022/08/04 10:14:37;;;;;;;9.75;4.38;;;30.90;93.60;;;;;;5062830;28;20416;-75
2022/08/04 10:17:25;;;;;;;6.03;3.30;;;30.70;93.10;;;;;;5043299;28;20052;-75
2022/08/04 10:20:07;;;;;;;;;;;30.70;93.70;;;;;;5077519;28;20483;-75
2022/08/04 10:22:40;;;;;;;7.30;2.72;;;30.80;93.60;;;;;;5078680;28;20374;-75
2022/08/04 10:25:33;;;;;;;5.43;2.45;;;31.10;93.20;;;;;;5090956;28;20048;-75
2022/08/04 10:28:01;;;;;;;;;;;31.30;91.90;;;;;;5075679;28;20048;-74
2022/08/04 10:30:30;;;;;;;4.45;2.33;;;31.60;92.20;;;;;;5057987;28;19924;-75
2022/08/04 10:33:18;;;;;;;7.28;2.10;;;31.90;92.10;;;;;;5074032;28;20062;-75
2022/08/04 10:35:59;;;;;;;6.68;2.63;;;32.00;90.00;;;;;;5074075;28;20462;-75
2022/08/04 10:39:15;;;;;;;6.35;2.50;;;31.90;90.00;;;;;;5087835;28;20117;-75
2022/08/04 10:41:55;;;;;;;;;;;31.80;89.70;;;;;;5066119;28;20138;-75
2022/08/04 10:44:23;;;;;;;;;;;31.70;90.20;;;;;;5074751;28;20384;-75
2022/08/04 10:46:54;;;;;;;;;;;31.60;89.50;;;;;;5073316;28;20382;-75
2022/08/04 10:49:32;;;;;;;;;;;31.50;89.20;;;;;;5084745;28;20435;-74
2022/08/04 10:52:00;;;;;;;;;;;31.50;88.90;;;;;;5087579;28;19920;-75
2022/08/04 10:54:29;;;;;;;;;;;31.60;90.00;;;;;;5074557;28;19963;-75
2022/08/04 10:57:36;;;;;;;4.88;2.17;;;31.90;89.70;;;;;;5055899;28;19931;-75
2022/08/04 11:00:09;;;;;;;4.95;1.80;;;32.40;89.20;;;;;;5077284;28;20055;-75
2022/08/04 11:03:09;;;;;;;4.03;2.00;;;32.80;89.20;;;;;;5080311;28;20078;-75
2022/08/04 11:05:45;;;;;;;;;;;33.20;87.90;;;;;;5056998;28;20820;-75
2022/08/04 11:08:13;;;;;;;;;;;33.10;84.50;;;;;;5037549;28;20302;-75
2022/08/04 11:11:14;;;;;;;3.17;1.10;;;33.00;85.70;;;;;;5068866;28;19924;-75
2022/08/04 11:14:00;;;;;;;5.75;1.42;;;32.90;84.80;;;;;;5045847;28;20411;-75
2022/08/04 11:16:45;;;;;;;4.93;1.30;;;32.70;83.40;;;;;;5068536;28;20898;-75
2022/08/04 11:19:40;;;;;;;6.18;1.50;;;32.50;83.30;;;;;;5061274;28;21487;-75
2022/08/04 11:22:06;;;;;;;4.70;1.45;;;32.40;83.20;;;;;;5062921;28;20422;-75
2022/08/04 11:25:00;;;;;;;4.80;1.30;;;32.10;82.60;;;;;;5082548;28;20808;-75
2022/08/04 11:28:10;;;;;;;4.88;1.65;;;32.00;82.60;;;;;;5081172;28;20050;-75
2022/08/04 11:30:44;;;;;;;5.50;1.50;;;32.00;83.60;;;;;;5085874;28;20077;-75
2022/08/04 11:33:28;;;;;;;7.40;1.58;;;32.20;84.00;;;;;;5079327;28;20036;-75
2022/08/04 11:36:07;;;;;;;5.50;1.20;;;32.30;84.40;;;;;;5065182;28;20045;-75
2022/08/04 11:38:41;;;;;;;;;;;32.00;83.40;;;;;;5067484;28;20055;-75
2022/08/04 11:41:09;;;;;;;;;;;31.60;83.90;;;;;;5071639;28;19920;-75
2022/08/04 11:43:43;;;;;;;;;;;31.20;84.20;;;;;;5087556;28;19920;-75
2022/08/04 11:46:14;;;;;;;;;;;30.90;85.00;;;;;;5045299;28;19920;-75
2022/08/04 11:48:57;;;;;;;;;;;30.70;85.10;;;;;;5093682;28;19920;-75
2022/08/04 11:51:25;;;;;;;;;;;30.50;84.80;;;;;;5087379;28;19949;-75
2022/08/04 11:53:51;;;;;;;;;;;30.50;85.90;;;;;;5075340;28;19920;-75
2022/08/04 11:56:17;;;;;;;;;;;30.50;84.30;;;;;;5074876;28;20297;-75
2022/08/04 11:58:42;;;;;;;;;;;30.30;84.80;;;;;;5075526;28;20426;-75
2022/08/04 12:01:11;;;;;;;;;;;30.30;84.90;;;;;;5093360;28;19920;-75
2022/08/04 12:03:55;;;;;;;;;;;30.30;85.10;;;;;;5062750;28;19920;-75
2022/08/04 12:06:29;;;;;;;;;;;30.30;85.70;;;;;;5074663;28;19920;-75
2022/08/04 12:09:07;;;;;;;;;;;30.30;85.80;;;;;;5075747;28;19920;-75
2022/08/04 12:11:51;;;;;;;;;;;30.30;85.20;;;;;;5058366;28;19924;-75
2022/08/04 12:14:23;;;;;;;;;;;30.20;84.60;;;;;;5092331;28;19920;-75
2022/08/04 12:16:57;;;;;;;;;;;30.10;85.30;;;;;;5093181;28;19920;-75
2022/08/04 12:19:22;;;;;;;;;;;30.00;86.00;;;;;;5086744;28;19924;-75
2022/08/04 12:21:53;;;;;;;;;;;30.00;85.20;;;;;;5074221;28;19920;-75
2022/08/04 12:24:39;;;;;;;;;;;30.00;85.00;;;;;;5076977;28;20045;-75
2022/08/04 12:27:11;;;;;;;;;;;29.90;85.20;;;;;;5058178;28;19955;-75
2022/08/04 12:29:39;;;;;;;;;;;29.90;84.80;;;;;;5048310;28;19920;-75
2022/08/04 12:32:22;;;;;;;;;;;29.90;84.80;;;;;;5081547;28;19920;-76
2022/08/04 12:34:53;;;;;;;;;;;29.80;85.90;;;;;;5059497;28;19920;-75
2022/08/04 12:37:24;;;;;;;;;;;29.70;83.90;;;;;;5067883;28;20283;-76
2022/08/04 12:39:51;;;;;;;;;;;29.60;83.30;;;;;;5066686;28;20441;-75
2022/08/04 12:42:26;;;;;;;;;;;29.30;83.10;;;;;;5073727;28;19927;-75
2022/08/04 12:44:53;;;;;;;;;;;29.20;83.40;;;;;;5064990;28;21179;-75
2022/08/04 12:47:22;;;;;;;;;;;29.00;82.10;;;;;;5051462;28;19942;-75
2022/08/04 12:49:48;;;;;;;;;;;28.80;82.10;;;;;;5056509;28;19920;-75
2022/08/04 12:52:15;;;;;;;;;;;28.50;81.40;;;;;;5062200;28;19924;-75
2022/08/04 12:54:42;;;;;;;;;;;28.40;81.60;;;;;;5041397;28;20011;-75
2022/08/04 12:57:09;;;;;;;;;;;28.10;81.80;;;;;;5069096;28;19974;-75
2022/08/04 12:59:38;;;;;;;;;;;27.90;82.50;;;;;;5055058;28;20282;-75
2022/08/04 13:02:05;;;;;;;;;;;27.80;82.90;;;;;;5081903;28;20282;-75
2022/08/04 13:04:31;;;;;;;;;;;27.80;84.40;;;;;;5059895;28;20293;-75
2022/08/04 13:07:00;;;;;;;;;;;27.70;85.20;;;;;;5087039;28;20002;-75
2022/08/04 13:09:28;;;;;;;;;;;27.60;85.40;;;;;;5055818;28;19921;-75
2022/08/04 13:11:59;;;;;;;;;;;27.50;85.20;;;;;;5062107;28;20349;-76
2022/08/04 13:14:27;;;;;;;;;;;27.40;85.50;;;;;;5079134;28;20059;-75
2022/08/04 13:17:00;;;;;;;;;;;27.30;85.60;;;;;;5083387;28;19920;-75
2022/08/04 13:19:26;;;;;;;;;;;27.30;86.40;;;;;;5082317;28;19927;-75
2022/08/04 13:21:53;;;;;;;;;;;27.40;86.30;;;;;;5084523;28;19921;-76
2022/08/04 13:24:20;;;;;;;;;;;27.50;87.40;;;;;;5066581;28;19920;-75
2022/08/04 13:26:48;;;;;;;;;;;27.70;87.60;;;;;;5063527;28;19920;-75
2022/08/04 13:29:13;;;;;;;;;;;28.30;87.50;;;;;;5080692;28;19933;-75
2022/08/04 13:31:44;;;;;;;3.90;0.80;;;28.70;86.50;;;;;;5088912;28;19931;-74
2022/08/04 13:34:10;;;;;;;1.23;0.30;;;28.90;85.40;;;;;;5079365;28;20051;-73
2022/08/04 13:36:36;;;;;;;;;;;29.00;84.70;;;;;;5062221;28;20053;-74
2022/08/04 13:39:06;;;;;;;;;;;29.50;82.50;;;;;;5079747;28;20305;-74
2022/08/04 13:41:32;;;;;;;;;;;30.00;79.60;;;;;;5073391;28;19920;-74
2022/08/04 13:44:01;;;;;;;;;;;29.90;79.70;;;;;;5086707;28;20401;-74
2022/08/04 13:46:27;;;;;;;;;;;29.90;80.50;;;;;;5047870;28;19920;-74
2022/08/04 13:48:54;;;;;;;;;;;30.20;79.80;;;;;;5088689;28;19955;-74
2022/08/04 13:51:21;;;;;;;;;;;30.10;78.00;;;;;;5073563;28;19975;-74
2022/08/04 13:53:54;;;;;;;;;;;30.30;79.80;;;;;;5087540;28;19924;-75
2022/08/04 13:56:21;;;;;;;;;;;30.50;78.90;;;;;;5083331;28;19923;-75
2022/08/04 13:58:48;;;;;;;5.10;1.10;;;30.90;77.80;;;;;;5070412;28;19988;-75
2022/08/04 14:01:18;;;;;;;2.20;0.40;;;31.50;78.20;;;;;;5085141;28;20418;-74
2022/08/04 14:03:58;;;;;;;3.17;0.47;;;32.00;78.60;;;;;;5088593;28;20413;-75
2022/08/04 14:06:33;;;;;;;2.53;0.50;;;32.50;76.10;;;;;;5039818;28;20556;-75
2022/08/04 14:09:14;;;;;;;2.42;0.47;;;32.70;74.70;;;;;;5079521;28;20939;-74
2022/08/04 14:11:42;;;;;;;6.07;0.88;;;33.00;74.30;;;;;;5089542;28;20114;-75
2022/08/04 14:14:31;;;;;;;2.88;0.45;;;33.40;73.20;;;;;;5083544;28;20401;-75
2022/08/04 14:17:12;;;;;;;2.42;0.35;;;33.90;72.40;;;;;;5078638;28;20489;-75
2022/08/04 14:19:50;;;;;;;;;;;34.00;71.60;;;;;;5081600;28;20080;-75
2022/08/04 14:22:24;;;;;;;;;;;34.10;71.30;;;;;;5090739;28;19924;-75
2022/08/04 14:24:56;;;;;;;;;;;34.10;71.90;;;;;;5078722;28;19920;-75
2022/08/04 14:27:21;;;;;;;;;;;33.40;72.80;;;;;;5067648;28;20006;-75
2022/08/04 14:29:47;;;;;;;;;;;32.80;75.00;;;;;;5086977;28;20011;-75
2022/08/04 14:32:12;;;;;;;7.93;1.08;;;33.00;75.80;;;;;;5052108;28;19920;-75
2022/08/04 14:34:40;;;;;;;7.63;1.50;;;33.20;75.50;;;;;;5083764;28;20048;-75